Terminal Aerodrome Forecast
Issued by NWS Quad Cities IA IL

Home | Current Version | Previous Version | Text Only | Print | Product List | Glossary On
Versions: 1 2 3 4 5 6 7 8 9 10 11 12 13 14 15 16 17 18
000
FTUS43 KDVN 231700
TAFDBQ
TAF
KDBQ 231735Z 2318/2418 14010KT P6SM OVC100
      TEMPO 2320/2323 -RA FEW050
     FM240100 13014KT P6SM VCSH OVC080
     FM241200 14018G28KT 5SM -SHRA BR VCTS OVC035CB
     FM241400 15020G25KT 4SM -RA BR OVC030=

USA.gov is the U.S. government's official web portal to all federal, state and local government web resources and services.